Time;durP1;ratioP1;P1;durP2;ratioP2;P2;SDS_P1;SDS_P2;PMS_P1;PMS_P2;Temp;Humidity;BMP_temperature;BMP_pressure;BME280_temperature;BME280_humidity;BME280_pressure;Samples;Min_cycle;Max_cycle;Signal;HPM_P1;HPM_P2
2023/03/29 00:01:12;;;;;;;2.17;1.80;;;8.10;99.90;;;;;;5007617;28;20206;-66
2023/03/29 00:03:38;;;;;;;2.40;2.00;;;8.20;99.90;;;;;;5009978;28;20200;-66
2023/03/29 00:06:05;;;;;;;2.83;2.30;;;8.20;99.90;;;;;;5010383;28;20198;-66
2023/03/29 00:08:36;;;;;;;2.40;2.28;;;8.20;99.90;;;;;;5014494;28;20194;-66
2023/03/29 00:11:02;;;;;;;3.25;2.83;;;8.30;99.90;;;;;;5010111;28;20679;-66
2023/03/29 00:13:28;;;;;;;3.93;2.87;;;8.20;99.90;;;;;;5014491;28;20187;-66
2023/03/29 00:15:55;;;;;;;2.97;2.67;;;8.10;99.90;;;;;;5013231;28;20420;-66
2023/03/29 00:18:21;;;;;;;2.40;2.20;;;8.30;99.90;;;;;;5011744;28;20607;-66
2023/03/29 00:20:54;;;;;;;3.85;2.10;;;8.30;99.90;;;;;;5009527;28;20202;-66
2023/03/29 00:23:21;;;;;;;2.45;2.25;;;8.00;99.90;;;;;;5009871;28;20210;-66
2023/03/29 00:25:47;;;;;;;2.30;1.85;;;8.00;99.90;;;;;;5007581;28;20182;-66
2023/03/29 00:28:13;;;;;;;2.70;2.17;;;8.10;99.90;;;;;;5027861;28;20186;-66
2023/03/29 00:30:39;;;;;;;2.10;1.90;;;7.50;99.90;;;;;;5010800;28;20444;-66
2023/03/29 00:33:06;;;;;;;2.40;2.20;;;8.10;99.90;;;;;;5011093;28;20221;-66
2023/03/29 00:35:32;;;;;;;2.33;2.13;;;7.80;99.90;;;;;;5009931;28;20190;-66
2023/03/29 00:37:57;;;;;;;2.63;2.20;;;8.10;99.90;;;;;;5010138;28;20600;-64
2023/03/29 00:40:23;;;;;;;2.13;2.03;;;8.10;99.90;;;;;;5010322;28;20183;-65
2023/03/29 00:42:49;;;;;;;2.33;2.00;;;8.50;99.90;;;;;;5009091;28;20523;-65
2023/03/29 00:45:24;;;;;;;3.10;2.80;;;8.10;99.90;;;;;;5011684;28;20204;-64
2023/03/29 00:48:01;;;;;;;2.60;2.40;;;8.00;99.90;;;;;;5007021;28;20186;-65
2023/03/29 00:50:30;;;;;;;2.50;2.30;;;8.10;99.90;;;;;;5010620;28;20675;-64
2023/03/29 00:53:13;;;;;;;2.85;2.47;;;8.10;99.90;;;;;;5041490;28;20739;-65
2023/03/29 00:56:21;;;;;;;2.42;2.20;;;7.90;99.90;;;;;;5012242;28;20192;-65
2023/03/29 00:58:51;;;;;;;3.05;2.55;;;8.00;99.90;;;;;;5009497;28;20194;-65
2023/03/29 01:01:24;;;;;;;3.40;2.92;;;7.70;99.90;;;;;;5005657;28;20215;-65
2023/03/29 01:04:17;;;;;;;3.60;2.45;;;7.70;99.90;;;;;;5012566;28;20656;-65
2023/03/29 01:06:48;;;;;;;2.38;2.13;;;7.80;99.90;;;;;;5011264;28;20307;-65
2023/03/29 01:09:17;;;;;;;2.72;2.25;;;7.70;99.90;;;;;;5012119;28;20614;-65
2023/03/29 01:11:51;;;;;;;2.65;2.40;;;8.10;99.90;;;;;;5010737;28;20206;-65
2023/03/29 01:14:28;;;;;;;2.85;2.22;;;7.90;99.90;;;;;;5029024;28;20640;-65
2023/03/29 01:16:54;;;;;;;2.45;2.25;;;8.00;99.90;;;;;;5011872;28;20184;-65
2023/03/29 01:19:25;;;;;;;2.47;2.27;;;7.90;99.90;;;;;;5010201;28;20176;-65
2023/03/29 01:22:04;;;;;;;2.20;1.90;;;8.10;99.90;;;;;;5009656;28;20462;-65
2023/03/29 01:24:49;;;;;;;2.63;2.42;;;7.50;99.90;;;;;;5010926;28;20187;-65
2023/03/29 01:27:21;;;;;;;2.40;2.20;;;8.20;99.90;;;;;;5009810;28;20183;-65
2023/03/29 01:29:56;;;;;;;2.88;2.67;;;7.80;99.90;;;;;;5026916;28;20191;-65
2023/03/29 01:32:36;;;;;;;3.83;2.03;;;7.70;99.90;;;;;;5011546;28;20207;-65
2023/03/29 01:35:14;;;;;;;4.30;2.05;;;7.70;99.90;;;;;;5010497;28;20587;-65
2023/03/29 01:37:49;;;;;;;2.65;2.45;;;8.10;99.90;;;;;;5012497;28;20187;-65
2023/03/29 01:40:15;;;;;;;2.90;2.70;;;7.90;99.90;;;;;;5008739;28;20195;-65
2023/03/29 01:42:52;;;;;;;2.43;2.23;;;7.80;99.90;;;;;;5012732;28;20241;-65
2023/03/29 01:45:32;;;;;;;2.60;2.40;;;7.70;99.90;;;;;;5024736;28;20481;-65
2023/03/29 01:48:09;;;;;;;2.30;2.10;;;7.90;99.90;;;;;;5010160;28;20190;-65
2023/03/29 01:50:50;;;;;;;2.45;2.20;;;8.10;99.90;;;;;;5012029;28;20676;-65
2023/03/29 01:54:13;;;;;;;4.28;2.40;;;7.90;99.90;;;;;;5011515;28;20723;-65
2023/03/29 01:56:42;;;;;;;5.45;4.10;;;7.90;99.90;;;;;;5007988;28;20290;-65
2023/03/29 01:59:11;;;;;;;3.38;2.60;;;8.00;99.90;;;;;;5012854;28;20194;-64
2023/03/29 02:01:41;;;;;;;3.40;3.10;;;7.90;99.90;;;;;;5012218;28;20215;-64
2023/03/29 02:04:13;;;;;;;3.17;2.67;;;8.20;99.90;;;;;;5011315;28;20602;-64
2023/03/29 02:06:40;;;;;;;3.13;2.83;;;7.60;99.90;;;;;;5009271;28;20190;-65
2023/03/29 02:09:06;;;;;;;5.38;3.80;;;7.60;99.90;;;;;;5009933;28;20190;-65
2023/03/29 02:11:33;;;;;;;3.03;2.80;;;7.60;99.90;;;;;;5011474;28;20237;-65
2023/03/29 02:13:59;;;;;;;3.30;2.90;;;7.80;99.90;;;;;;5010812;28;20258;-65
2023/03/29 02:16:25;;;;;;;4.93;3.90;;;8.10;99.90;;;;;;5010435;28;20266;-65
2023/03/29 02:18:55;;;;;;;2.42;2.22;;;7.70;99.90;;;;;;5010495;28;20446;-65
2023/03/29 02:21:28;;;;;;;2.80;2.40;;;7.70;99.90;;;;;;5010628;28;20218;-65
2023/03/29 02:23:56;;;;;;;3.38;2.70;;;7.70;99.90;;;;;;5010615;28;20241;-65
2023/03/29 02:26:22;;;;;;;2.67;2.30;;;7.70;99.90;;;;;;5008986;28;20286;-65
2023/03/29 02:28:48;;;;;;;2.53;2.33;;;7.80;99.90;;;;;;5010428;28;20596;-65
2023/03/29 02:31:32;;;;;;;4.93;2.83;;;7.70;99.90;;;;;;5010314;28;20217;-65
2023/03/29 02:34:11;;;;;;;3.85;2.60;;;7.70;99.90;;;;;;5009064;28;20183;-65
2023/03/29 02:36:50;;;;;;;3.10;2.60;;;7.40;99.90;;;;;;5013074;28;20326;-65
2023/03/29 02:39:18;;;;;;;4.07;2.90;;;7.50;99.90;;;;;;5008882;28;20187;-65
2023/03/29 02:41:48;;;;;;;3.28;2.75;;;7.70;99.90;;;;;;5009837;28;20206;-65
2023/03/29 02:44:21;;;;;;;4.85;2.65;;;7.80;99.90;;;;;;5010383;28;20187;-65
2023/03/29 02:46:56;;;;;;;3.95;2.85;;;7.70;99.90;;;;;;5010523;28;20663;-64
2023/03/29 02:49:22;;;;;;;2.90;2.60;;;7.60;99.90;;;;;;5007137;28;20199;-66
2023/03/29 02:51:52;;;;;;;2.87;2.40;;;7.70;99.90;;;;;;5011915;28;20206;-64
2023/03/29 02:54:20;;;;;;;2.63;2.40;;;7.70;99.90;;;;;;5012263;28;21006;-64
2023/03/29 02:56:48;;;;;;;2.97;2.70;;;7.60;99.90;;;;;;5010714;28;20187;-65
2023/03/29 02:59:18;;;;;;;3.33;2.85;;;7.60;99.90;;;;;;5009056;28;20571;-65
2023/03/29 03:01:44;;;;;;;3.28;2.35;;;7.40;99.90;;;;;;5009381;28;20207;-65
2023/03/29 03:04:10;;;;;;;2.77;2.57;;;7.30;99.90;;;;;;5007696;28;20655;-65
2023/03/29 03:06:37;;;;;;;3.42;2.38;;;7.50;99.90;;;;;;5010892;28;20455;-65
2023/03/29 03:09:04;;;;;;;2.60;2.40;;;6.80;99.90;;;;;;5009341;28;20257;-65
2023/03/29 03:11:31;;;;;;;3.28;2.97;;;7.50;99.90;;;;;;5011684;28;20210;-65
2023/03/29 03:13:56;;;;;;;2.70;2.50;;;7.30;99.90;;;;;;5012335;28;20190;-65
2023/03/29 03:16:22;;;;;;;3.17;2.43;;;7.50;99.90;;;;;;5009724;28;20237;-65
2023/03/29 03:18:50;;;;;;;2.40;2.20;;;7.30;99.90;;;;;;5007854;28;20189;-65
2023/03/29 03:21:17;;;;;;;2.42;2.20;;;7.20;99.90;;;;;;5009792;28;20230;-65
2023/03/29 03:23:44;;;;;;;2.97;2.58;;;7.70;99.90;;;;;;5011790;28;20182;-65
2023/03/29 03:26:11;;;;;;;2.70;2.50;;;7.60;99.90;;;;;;5009402;28;20191;-65
2023/03/29 03:28:37;;;;;;;3.17;2.35;;;7.40;99.90;;;;;;5010570;28;20683;-65
2023/03/29 03:31:03;;;;;;;2.75;2.40;;;7.50;99.90;;;;;;5010497;28;20215;-65
2023/03/29 03:33:29;;;;;;;2.93;2.63;;;7.50;99.90;;;;;;5009971;28;20624;-65
2023/03/29 03:36:01;;;;;;;2.83;2.60;;;7.60;99.90;;;;;;5008065;28;20420;-65
2023/03/29 03:38:28;;;;;;;2.17;1.98;;;7.60;99.90;;;;;;5012321;28;20445;-65
2023/03/29 03:40:58;;;;;;;3.55;2.15;;;7.50;99.90;;;;;;5008799;28;20207;-65
2023/03/29 03:43:24;;;;;;;3.97;2.40;;;7.30;99.90;;;;;;5010826;28;20179;-65
2023/03/29 03:45:50;;;;;;;2.13;1.92;;;7.60;99.90;;;;;;5008874;28;20187;-65
2023/03/29 03:48:16;;;;;;;2.90;2.30;;;7.10;99.90;;;;;;5008539;28;20682;-65
2023/03/29 03:50:48;;;;;;;3.40;2.38;;;7.80;99.90;;;;;;5011765;28;20260;-65
2023/03/29 03:53:14;;;;;;;2.95;2.75;;;7.90;99.90;;;;;;5009349;28;20668;-65
2023/03/29 03:55:40;;;;;;;2.10;1.90;;;7.80;99.90;;;;;;5009736;28;20200;-65
2023/03/29 03:58:06;;;;;;;2.97;2.77;;;8.00;99.90;;;;;;5010470;28;21004;-65
2023/03/29 04:00:32;;;;;;;2.80;2.60;;;7.70;99.90;;;;;;5006366;28;20184;-65
2023/03/29 04:02:58;;;;;;;3.08;2.53;;;7.70;99.90;;;;;;5007958;28;20187;-65
2023/03/29 04:05:24;;;;;;;3.40;3.10;;;7.90;99.90;;;;;;5008069;28;20189;-65
2023/03/29 04:07:51;;;;;;;2.53;2.33;;;8.10;99.90;;;;;;5007412;28;20191;-65
2023/03/29 04:10:17;;;;;;;3.50;2.58;;;8.40;99.90;;;;;;5007894;28;20671;-65
2023/03/29 04:12:42;;;;;;;4.40;2.30;;;7.90;99.90;;;;;;5008277;28;20206;-66
2023/03/29 04:15:09;;;;;;;2.67;2.27;;;8.00;99.90;;;;;;5010212;28;20202;-66
2023/03/29 04:17:35;;;;;;;3.15;2.85;;;7.80;99.90;;;;;;5007406;28;20271;-66
2023/03/29 04:20:08;;;;;;;2.60;2.40;;;8.10;99.90;;;;;;5004717;28;20179;-66
2023/03/29 04:22:34;;;;;;;2.33;2.13;;;7.90;99.90;;;;;;5008797;28;20261;-65
2023/03/29 04:24:59;;;;;;;3.83;2.70;;;7.50;99.90;;;;;;5008952;28;20191;-65
2023/03/29 04:27:25;;;;;;;4.30;2.77;;;8.00;99.90;;;;;;5006972;28;20202;-65
2023/03/29 04:29:51;;;;;;;2.90;2.40;;;8.10;99.90;;;;;;5008122;28;20191;-65
2023/03/29 04:32:16;;;;;;;2.53;2.33;;;8.60;99.90;;;;;;5011946;28;20322;-65
2023/03/29 04:34:42;;;;;;;3.00;2.37;;;7.90;99.90;;;;;;5005068;28;20182;-65
2023/03/29 04:37:09;;;;;;;2.33;2.13;;;8.00;99.90;;;;;;5006054;28;20179;-65
2023/03/29 04:39:38;;;;;;;2.05;1.85;;;8.00;99.90;;;;;;5006659;28;20282;-66
2023/03/29 04:42:04;;;;;;;2.70;2.50;;;8.50;99.90;;;;;;5008314;28;20206;-65
2023/03/29 04:44:32;;;;;;;3.75;2.55;;;8.10;99.90;;;;;;5010354;28;20183;-65
2023/03/29 04:46:59;;;;;;;5.00;1.98;;;8.40;99.90;;;;;;5009166;28;20187;-65
2023/03/29 04:49:25;;;;;;;2.70;2.30;;;8.20;99.90;;;;;;5005897;28;21191;-65
2023/03/29 04:51:52;;;;;;;3.60;3.17;;;8.50;99.90;;;;;;5008622;28;20216;-65
2023/03/29 04:54:17;;;;;;;2.22;2.00;;;8.60;99.90;;;;;;5010830;28;20420;-65
2023/03/29 04:56:43;;;;;;;3.00;2.67;;;8.40;99.90;;;;;;5012013;28;20703;-65
2023/03/29 04:59:09;;;;;;;2.37;2.17;;;8.50;99.90;;;;;;5012832;28;20262;-65
2023/03/29 05:01:34;;;;;;;3.07;2.27;;;8.60;99.90;;;;;;5011537;28;20247;-65
2023/03/29 05:04:01;;;;;;;6.67;2.40;;;8.30;99.90;;;;;;5011601;28;20219;-65
2023/03/29 05:06:28;;;;;;;5.25;3.13;;;8.60;99.90;;;;;;5010176;28;20445;-65
2023/03/29 05:08:54;;;;;;;5.15;2.70;;;8.60;99.90;;;;;;5011687;28;20187;-65
2023/03/29 05:11:23;;;;;;;2.67;2.40;;;8.60;99.90;;;;;;5011690;28;20218;-66
2023/03/29 05:13:48;;;;;;;4.35;2.35;;;8.60;99.90;;;;;;5014431;28;20179;-65
2023/03/29 05:16:14;;;;;;;4.30;3.53;;;8.70;99.90;;;;;;5011159;28;20715;-65
2023/03/29 05:18:40;;;;;;;2.70;2.35;;;8.50;99.90;;;;;;5010600;28;20229;-65
2023/03/29 05:21:06;;;;;;;2.63;1.90;;;8.80;99.90;;;;;;5010028;28;20211;-65
2023/03/29 05:23:33;;;;;;;2.83;2.40;;;8.60;99.90;;;;;;5011561;28;20503;-65
2023/03/29 05:25:59;;;;;;;6.57;3.30;;;8.60;99.90;;;;;;5008202;28;20234;-66
2023/03/29 05:28:24;;;;;;;3.50;2.47;;;8.60;99.90;;;;;;5012541;28;20226;-65
2023/03/29 05:31:02;;;;;;;2.23;2.03;;;8.50;99.90;;;;;;5011384;28;20511;-65
2023/03/29 05:33:29;;;;;;;4.10;2.42;;;8.70;99.90;;;;;;5011701;28;20234;-65
2023/03/29 05:36:00;;;;;;;2.90;2.22;;;8.70;99.90;;;;;;5010488;28;20682;-65
2023/03/29 05:38:25;;;;;;;4.40;2.40;;;9.20;99.90;;;;;;5014208;28;20258;-65
2023/03/29 05:40:51;;;;;;;3.43;2.50;;;8.70;99.90;;;;;;5011761;28;20212;-65
2023/03/29 05:43:17;;;;;;;3.27;2.03;;;8.80;99.90;;;;;;5013054;28;20187;-65
2023/03/29 05:45:43;;;;;;;3.47;2.90;;;8.90;99.90;;;;;;5010972;28;20529;-65
2023/03/29 05:48:09;;;;;;;2.43;2.23;;;8.90;99.90;;;;;;5011434;28;20227;-65
2023/03/29 05:50:36;;;;;;;2.40;2.10;;;8.90;99.90;;;;;;5009928;28;20235;-66
2023/03/29 05:53:02;;;;;;;3.10;2.38;;;8.90;99.90;;;;;;5011984;28;20469;-65
2023/03/29 05:55:28;;;;;;;2.92;2.60;;;8.90;99.90;;;;;;5010281;28;20271;-65
2023/03/29 05:57:54;;;;;;;6.00;3.60;;;8.90;99.90;;;;;;5011153;28;20266;-66
2023/03/29 06:00:24;;;;;;;4.70;2.47;;;9.10;99.90;;;;;;5012953;28;20449;-65
2023/03/29 06:02:54;;;;;;;3.50;3.20;;;8.90;99.90;;;;;;5010922;28;20229;-65
2023/03/29 06:05:20;;;;;;;3.60;2.85;;;9.20;99.90;;;;;;5008713;28;20600;-65
2023/03/29 06:07:47;;;;;;;3.87;2.50;;;9.00;99.90;;;;;;5008213;28;20645;-65
2023/03/29 06:10:14;;;;;;;3.20;2.35;;;9.10;99.90;;;;;;5011144;28;20579;-65
2023/03/29 06:12:40;;;;;;;2.70;2.30;;;9.30;99.90;;;;;;5011019;28;20230;-65
2023/03/29 06:15:07;;;;;;;7.40;3.17;;;8.80;99.90;;;;;;5015061;28;20176;-66
2023/03/29 06:17:33;;;;;;;3.53;2.50;;;9.10;99.90;;;;;;5011915;28;20192;-66
2023/03/29 06:19:59;;;;;;;3.78;2.97;;;9.20;99.90;;;;;;5010612;28;20199;-65
2023/03/29 06:22:26;;;;;;;22.02;13.27;;;9.30;99.90;;;;;;5008897;28;20211;-66
2023/03/29 06:24:52;;;;;;;6.88;5.40;;;9.40;99.90;;;;;;5009386;28;20218;-66
2023/03/29 06:27:18;;;;;;;4.20;2.70;;;8.90;99.90;;;;;;5008342;28;20215;-66
2023/03/29 06:29:44;;;;;;;4.20;2.10;;;9.50;99.90;;;;;;5010898;28;20450;-65
2023/03/29 06:32:10;;;;;;;5.82;3.20;;;8.90;99.90;;;;;;5008943;28;20269;-65
2023/03/29 06:34:36;;;;;;;5.25;3.13;;;9.50;99.90;;;;;;5007231;28;20662;-65
2023/03/29 06:37:02;;;;;;;3.70;2.63;;;9.50;99.90;;;;;;5011985;28;20190;-65
2023/03/29 06:39:28;;;;;;;4.55;2.95;;;9.50;99.90;;;;;;5010117;28;20455;-65
2023/03/29 06:41:54;;;;;;;4.20;3.25;;;9.70;99.90;;;;;;5009398;28;20284;-65
2023/03/29 06:44:20;;;;;;;3.00;2.70;;;9.90;99.10;;;;;;5010882;28;20666;-65
2023/03/29 06:46:46;;;;;;;3.37;2.70;;;9.90;98.80;;;;;;5009982;28;20193;-65
2023/03/29 06:49:11;;;;;;;3.37;3.07;;;10.30;97.00;;;;;;5013088;28;20197;-64
2023/03/29 06:51:38;;;;;;;3.70;2.83;;;10.50;96.90;;;;;;5009955;28;21970;-65
2023/03/29 06:54:04;;;;;;;3.35;2.63;;;10.80;97.50;;;;;;5008859;28;20216;-64
2023/03/29 06:56:30;;;;;;;9.20;4.00;;;10.60;98.00;;;;;;5009398;28;20284;-65
2023/03/29 06:58:56;;;;;;;4.40;3.35;;;10.70;98.30;;;;;;5006386;28;20667;-65
2023/03/29 07:01:22;;;;;;;6.33;3.90;;;10.80;98.60;;;;;;5007327;28;20304;-67
2023/03/29 07:03:48;;;;;;;6.30;3.77;;;10.70;98.40;;;;;;5009210;28;20456;-68
2023/03/29 07:06:16;;;;;;;7.20;3.57;;;10.30;98.10;;;;;;4997841;28;20452;-67
2023/03/29 07:08:42;;;;;;;5.53;3.15;;;11.10;98.10;;;;;;5005769;28;20303;-67
2023/03/29 07:11:13;;;;;;;8.52;3.22;;;11.00;97.40;;;;;;5008011;28;20277;-67
2023/03/29 07:13:41;;;;;;;3.22;2.70;;;11.10;97.00;;;;;;5008863;28;20206;-67
2023/03/29 07:16:11;;;;;;;9.38;3.40;;;11.40;96.10;;;;;;5007975;28;20205;-67
2023/03/29 07:18:40;;;;;;;2.60;1.60;;;11.20;96.20;;;;;;5007997;28;20268;-69
2023/03/29 07:21:07;;;;;;;2.83;1.80;;;11.50;95.40;;;;;;5006422;28;20210;-71
2023/03/29 07:23:33;;;;;;;1.73;1.63;;;11.70;94.70;;;;;;5009671;28;20202;-71
2023/03/29 07:26:00;;;;;;;1.70;1.60;;;11.80;93.90;;;;;;5007015;28;20281;-71
2023/03/29 07:28:25;;;;;;;3.08;1.80;;;11.90;93.70;;;;;;5009397;28;20193;-71
2023/03/29 07:30:52;;;;;;;3.23;1.90;;;11.90;93.30;;;;;;5006801;28;20205;-67
2023/03/29 07:33:17;;;;;;;2.20;1.80;;;11.90;93.20;;;;;;5009183;28;20652;-70
2023/03/29 07:35:46;;;;;;;6.47;2.67;;;12.20;93.00;;;;;;5005167;28;20237;-70
2023/03/29 07:38:14;;;;;;;2.20;2.00;;;12.20;92.50;;;;;;5007790;28;20532;-66
2023/03/29 07:40:40;;;;;;;5.18;2.42;;;12.30;92.70;;;;;;5008515;28;20207;-72
2023/03/29 07:43:09;;;;;;;1.60;1.50;;;12.50;92.60;;;;;;5006486;28;20189;-70
2023/03/29 07:45:35;;;;;;;2.05;1.60;;;12.50;92.00;;;;;;5003948;28;20446;-70
2023/03/29 07:48:01;;;;;;;8.30;2.70;;;12.50;92.00;;;;;;5006359;28;20205;-68
2023/03/29 07:50:27;;;;;;;2.10;1.83;;;12.80;91.90;;;;;;5006481;28;20446;-68
2023/03/29 07:52:53;;;;;;;5.10;2.30;;;12.90;91.80;;;;;;5004664;28;20214;-72
2023/03/29 07:55:18;;;;;;;6.00;1.80;;;13.10;91.70;;;;;;5039200;28;20446;-72
2023/03/29 07:57:44;;;;;;;2.77;1.80;;;13.10;91.10;;;;;;5005881;28;20865;-70
2023/03/29 08:00:14;;;;;;;3.20;1.90;;;12.90;90.90;;;;;;5006931;28;20185;-67
2023/03/29 08:02:44;;;;;;;1.70;1.60;;;13.10;91.00;;;;;;5010387;28;20281;-67
2023/03/29 08:05:12;;;;;;;2.80;1.90;;;13.50;90.40;;;;;;5009893;28;20198;-66
2023/03/29 08:07:40;;;;;;;2.25;1.70;;;13.40;90.30;;;;;;5005417;28;20202;-66
2023/03/29 08:10:12;;;;;;;4.63;1.40;;;13.30;89.30;;;;;;5008072;28;20191;-67
2023/03/29 08:12:38;;;;;;;1.90;1.80;;;13.40;88.90;;;;;;5006382;28;20793;-66
2023/03/29 08:15:04;;;;;;;5.00;1.65;;;13.30;88.80;;;;;;5007577;28;20205;-65
2023/03/29 08:17:31;;;;;;;1.83;1.30;;;13.60;88.30;;;;;;5004997;28;20189;-69
2023/03/29 08:19:56;;;;;;;3.15;1.55;;;13.50;87.20;;;;;;5007411;28;20273;-71
2023/03/29 08:22:22;;;;;;;3.17;1.77;;;14.00;87.20;;;;;;5008715;28;20206;-71
2023/03/29 08:24:48;;;;;;;4.63;1.50;;;13.90;86.70;;;;;;5010056;28;20672;-71
2023/03/29 08:27:13;;;;;;;2.03;1.73;;;14.00;86.50;;;;;;5006306;28;20183;-69
2023/03/29 08:29:39;;;;;;;3.60;1.37;;;13.90;85.80;;;;;;5015663;28;20195;-70
2023/03/29 08:32:04;;;;;;;2.47;1.83;;;14.10;86.00;;;;;;5013529;28;20707;-70
2023/03/29 08:34:30;;;;;;;3.03;2.10;;;14.20;86.10;;;;;;5010428;28;20251;-71
2023/03/29 08:36:57;;;;;;;2.27;1.70;;;13.90;85.50;;;;;;5011394;28;20277;-65
2023/03/29 08:39:23;;;;;;;3.35;1.60;;;13.90;85.50;;;;;;5011362;28;20537;-65
2023/03/29 08:42:31;;;;;;;2.50;2.00;;;14.00;85.50;;;;;;5003699;28;20306;-65
2023/03/29 08:45:28;;;;;;;3.95;1.77;;;13.90;85.70;;;;;;5007059;28;20246;-67
2023/03/29 08:48:11;;;;;;;3.20;1.50;;;13.80;85.80;;;;;;5011018;28;20211;-66
2023/03/29 08:50:49;;;;;;;1.60;1.50;;;13.60;86.50;;;;;;5008916;28;20210;-67
2023/03/29 08:53:40;;;;;;;4.00;1.67;;;13.80;86.30;;;;;;5012029;28;20661;-67
2023/03/29 08:56:09;;;;;;;2.78;1.80;;;13.80;86.50;;;;;;5011096;28;20206;-68
2023/03/29 08:58:36;;;;;;;1.60;1.50;;;13.50;86.10;;;;;;5011906;28;20218;-68
2023/03/29 09:01:07;;;;;;;2.15;1.75;;;13.60;86.20;;;;;;5013867;28;20210;-68
2023/03/29 09:04:02;;;;;;;2.42;1.60;;;13.70;85.30;;;;;;5013207;28;20178;-69
2023/03/29 09:06:27;;;;;;;2.45;2.00;;;13.60;84.30;;;;;;5008534;28;20186;-68
2023/03/29 09:08:53;;;;;;;2.20;1.53;;;14.20;84.80;;;;;;5012439;28;20197;-67
2023/03/29 09:11:40;;;;;;;2.10;1.90;;;13.80;83.20;;;;;;5005852;28;20261;-68
2023/03/29 09:14:24;;;;;;;1.60;1.40;;;14.70;83.50;;;;;;5010005;28;20438;-69
2023/03/29 09:17:11;;;;;;;2.40;1.65;;;14.50;82.80;;;;;;5009044;28;20196;-69
2023/03/29 09:19:59;;;;;;;2.88;1.45;;;14.90;81.80;;;;;;5024561;28;20224;-68
2023/03/29 09:22:55;;;;;;;1.85;1.75;;;14.60;80.90;;;;;;5011518;28;20896;-67
2023/03/29 09:25:28;;;;;;;2.25;1.90;;;14.80;80.70;;;;;;5001650;28;20684;-65
2023/03/29 09:28:04;;;;;;;4.05;3.63;;;15.00;80.80;;;;;;5009352;28;20187;-65
2023/03/29 09:30:30;;;;;;;2.92;1.73;;;15.30;80.40;;;;;;5011046;28;20186;-67
2023/03/29 09:33:04;;;;;;;2.67;2.37;;;15.30;79.20;;;;;;5011221;28;20715;-71
2023/03/29 09:35:36;;;;;;;2.40;2.20;;;15.10;80.60;;;;;;5021352;28;20179;-67
2023/03/29 09:38:04;;;;;;;2.75;2.00;;;15.00;80.60;;;;;;5019091;28;20187;-66
2023/03/29 09:40:37;;;;;;;4.00;1.88;;;15.50;80.10;;;;;;5021565;28;20289;-66
2023/03/29 09:43:07;;;;;;;3.88;2.47;;;15.20;76.90;;;;;;5009432;28;20179;-66
2023/03/29 09:45:36;;;;;;;1.98;1.80;;;15.50;75.90;;;;;;5009015;28;20340;-66
2023/03/29 09:48:16;;;;;;;4.03;1.73;;;16.00;74.70;;;;;;5009111;28;20191;-67
2023/03/29 09:50:47;;;;;;;1.77;1.50;;;16.40;73.00;;;;;;5006946;28;20215;-67
2023/03/29 09:53:18;;;;;;;1.65;1.40;;;17.40;72.00;;;;;;5007242;28;20194;-67
2023/03/29 09:55:47;;;;;;;2.40;1.80;;;17.30;69.40;;;;;;5010282;28;20237;-67
2023/03/29 09:58:16;;;;;;;2.25;2.05;;;17.60;69.00;;;;;;5009619;28;20261;-67
2023/03/29 10:00:43;;;;;;;2.08;1.88;;;18.00;68.00;;;;;;5007857;28;20242;-67
2023/03/29 10:03:20;;;;;;;1.98;1.80;;;18.30;66.20;;;;;;5008456;28;20178;-66
2023/03/29 10:05:48;;;;;;;2.33;2.00;;;18.40;64.50;;;;;;5008519;28;20182;-65
2023/03/29 10:08:21;;;;;;;2.83;1.80;;;18.50;63.70;;;;;;4998940;28;20180;-65
2023/03/29 10:10:47;;;;;;;2.08;1.60;;;18.20;62.90;;;;;;5002201;28;20203;-66
2023/03/29 10:13:22;;;;;;;1.85;1.67;;;18.10;64.60;;;;;;5005896;28;20278;-66
2023/03/29 10:16:08;;;;;;;1.77;1.67;;;18.10;63.80;;;;;;5004448;28;20178;-66
2023/03/29 10:18:41;;;;;;;1.55;1.45;;;18.50;63.70;;;;;;5008093;28;20197;-66
2023/03/29 10:21:13;;;;;;;2.15;1.67;;;18.70;62.00;;;;;;5008159;28;20199;-66
2023/03/29 10:23:39;;;;;;;2.25;1.98;;;18.60;62.40;;;;;;5005625;28;20240;-66
2023/03/29 10:26:22;;;;;;;1.97;1.77;;;18.60;63.20;;;;;;5006915;28;20198;-66
2023/03/29 10:28:52;;;;;;;3.80;1.73;;;18.40;64.90;;;;;;5006925;28;20190;-65
2023/03/29 10:31:21;;;;;;;2.10;1.60;;;18.10;63.70;;;;;;5007894;28;20216;-66
2023/03/29 10:33:57;;;;;;;2.33;2.10;;;18.30;64.30;;;;;;5006367;28;20182;-65
2023/03/29 10:36:25;;;;;;;3.13;2.10;;;18.60;63.50;;;;;;5005614;28;20178;-66
2023/03/29 10:38:57;;;;;;;3.10;2.80;;;18.60;61.80;;;;;;5009827;28;20709;-67
2023/03/29 10:41:25;;;;;;;5.60;2.63;;;19.50;62.60;;;;;;5007660;28;20289;-66
2023/03/29 10:43:51;;;;;;;3.80;2.55;;;19.30;60.90;;;;;;5008720;28;20210;-66
2023/03/29 10:46:27;;;;;;;2.30;1.90;;;19.70;59.90;;;;;;5009216;28;20175;-66
2023/03/29 10:49:20;;;;;;;2.05;1.85;;;20.00;59.20;;;;;;5003936;28;20213;-66
2023/03/29 10:51:48;;;;;;;2.65;1.60;;;19.90;57.60;;;;;;5004686;28;20222;-67
2023/03/29 10:54:20;;;;;;;3.50;2.83;;;20.90;57.20;;;;;;5009167;28;20643;-66
2023/03/29 10:56:54;;;;;;;1.93;1.80;;;21.40;56.50;;;;;;5005510;28;20516;-66
2023/03/29 10:59:39;;;;;;;1.73;1.63;;;21.60;55.80;;;;;;5005430;28;20996;-66
2023/03/29 11:02:14;;;;;;;3.35;2.03;;;21.20;55.40;;;;;;5009062;28;20476;-66
2023/03/29 11:04:45;;;;;;;2.17;1.80;;;20.80;56.70;;;;;;5005004;28;20978;-66
2023/03/29 11:07:34;;;;;;;2.58;2.00;;;20.70;56.30;;;;;;5008308;28;20454;-66
2023/03/29 11:10:20;;;;;;;2.08;1.80;;;20.10;56.80;;;;;;5004545;28;20184;-66
2023/03/29 11:13:07;;;;;;;2.53;1.90;;;20.20;57.10;;;;;;5008614;28;20233;-66
2023/03/29 11:15:47;;;;;;;2.92;2.30;;;20.30;57.00;;;;;;5007916;28;20587;-64
2023/03/29 11:18:31;;;;;;;1.75;1.65;;;20.30;57.40;;;;;;5009282;28;20179;-65
2023/03/29 11:21:09;;;;;;;2.77;1.77;;;21.00;57.10;;;;;;5006682;28;20221;-65
2023/03/29 11:24:14;;;;;;;3.23;2.50;;;21.70;56.00;;;;;;5007694;28;20452;-65
2023/03/29 11:27:10;;;;;;;2.77;1.80;;;22.40;55.60;;;;;;5005498;28;20449;-65
2023/03/29 11:30:12;;;;;;;2.40;1.40;;;21.50;55.00;;;;;;5008783;28;20540;-64
2023/03/29 11:32:55;;;;;;;2.47;2.10;;;21.70;55.40;;;;;;5008093;28;20481;-65
2023/03/29 11:35:25;;;;;;;2.90;2.00;;;21.40;55.80;;;;;;5002489;28;20487;-65
2023/03/29 11:38:04;;;;;;;2.00;1.80;;;21.70;55.80;;;;;;5008409;28;20446;-65
2023/03/29 11:40:48;;;;;;;2.20;2.00;;;21.60;55.60;;;;;;5006526;28;20966;-65
2023/03/29 11:43:26;;;;;;;2.40;2.00;;;21.40;55.00;;;;;;5039649;28;20480;-64
2023/03/29 11:45:57;;;;;;;2.83;1.90;;;21.60;55.70;;;;;;5004242;28;20453;-65
2023/03/29 11:48:31;;;;;;;1.90;1.70;;;21.50;55.40;;;;;;5008003;28;20486;-65
2023/03/29 11:51:10;;;;;;;3.63;2.00;;;21.30;55.50;;;;;;5002622;28;20469;-66
2023/03/29 11:53:41;;;;;;;2.70;1.70;;;21.50;55.80;;;;;;5007698;28;20441;-65
2023/03/29 11:56:18;;;;;;;1.80;1.50;;;20.70;55.80;;;;;;5005361;28;20520;-65
2023/03/29 11:58:48;;;;;;;1.80;1.70;;;19.70;56.00;;;;;;5003324;28;20187;-67
2023/03/29 12:01:20;;;;;;;2.55;2.00;;;20.10;56.70;;;;;;5006911;28;20683;-67
2023/03/29 12:03:53;;;;;;;2.53;1.75;;;20.50;57.70;;;;;;5005436;28;20194;-68
2023/03/29 12:06:39;;;;;;;3.30;2.80;;;21.00;56.10;;;;;;5007169;28;20186;-68
2023/03/29 12:09:23;;;;;;;1.77;1.47;;;21.20;55.00;;;;;;5006909;28;20461;-69
2023/03/29 12:11:56;;;;;;;2.10;1.47;;;21.50;52.80;;;;;;5038664;28;20828;-67
2023/03/29 12:14:36;;;;;;;1.77;1.48;;;21.30;52.40;;;;;;5008722;28;20450;-67
2023/03/29 12:17:09;;;;;;;3.53;1.63;;;20.80;52.40;;;;;;5008162;28;20185;-68
2023/03/29 12:19:47;;;;;;;4.35;2.75;;;20.30;53.30;;;;;;5038984;28;20257;-69
2023/03/29 12:22:13;;;;;;;1.40;1.30;;;20.40;54.00;;;;;;5006095;28;20202;-69
2023/03/29 12:24:42;;;;;;;1.77;1.30;;;20.30;54.00;;;;;;5007821;28;20193;-68
2023/03/29 12:27:19;;;;;;;1.58;1.48;;;20.20;54.10;;;;;;5004440;28;20206;-68
2023/03/29 12:30:22;;;;;;;1.52;1.40;;;20.10;54.90;;;;;;5006523;28;20191;-69
2023/03/29 12:32:48;;;;;;;3.60;1.75;;;20.10;55.30;;;;;;5007919;28;20206;-68
2023/03/29 12:35:24;;;;;;;2.33;1.67;;;20.10;56.00;;;;;;5011433;28;20207;-69
2023/03/29 12:38:07;;;;;;;3.20;1.63;;;20.30;57.10;;;;;;5019007;28;20254;-69
2023/03/29 12:40:41;;;;;;;4.00;1.90;;;20.10;56.80;;;;;;5006029;28;20653;-71
2023/03/29 12:43:13;;;;;;;3.67;1.80;;;19.90;57.30;;;;;;5008394;28;20187;-70
2023/03/29 12:45:50;;;;;;;1.42;1.30;;;20.00;56.20;;;;;;5022805;28;20198;-70
2023/03/29 12:48:22;;;;;;;2.25;1.50;;;19.70;54.80;;;;;;5004949;28;20203;-66
2023/03/29 12:51:16;;;;;;;2.75;1.50;;;19.50;55.20;;;;;;5008056;28;20218;-66
2023/03/29 12:53:53;;;;;;;2.92;2.05;;;19.20;56.40;;;;;;5005104;28;20214;-66
2023/03/29 12:56:33;;;;;;;3.05;2.25;;;19.00;58.20;;;;;;5002570;28;20203;-66
2023/03/29 12:59:16;;;;;;;3.60;1.20;;;18.90;60.90;;;;;;5003685;28;20885;-66
2023/03/29 13:02:00;;;;;;;4.93;1.55;;;19.20;64.70;;;;;;5006805;28;20286;-66
2023/03/29 13:04:56;;;;;;;3.40;1.55;;;19.20;65.30;;;;;;5001115;28;20672;-65
2023/03/29 13:07:22;;;;;;;1.75;1.45;;;18.90;62.50;;;;;;5005457;28;20850;-66
2023/03/29 13:09:58;;;;;;;1.70;1.60;;;19.00;62.50;;;;;;5009206;28;20269;-66
2023/03/29 13:12:27;;;;;;;3.08;1.20;;;18.90;61.10;;;;;;5001687;28;20223;-66
2023/03/29 13:14:57;;;;;;;1.95;1.55;;;19.00;60.40;;;;;;5007398;28;20194;-72